createdAt,value
2019-03-12T00:05:51.518Z,89.97
2019-03-12T00:11:56.440Z,90.23
2019-03-12T00:18:01.060Z,90.69
2019-03-12T00:24:05.710Z,92.06
2019-03-12T00:30:11.545Z,92.12
2019-03-12T00:36:16.646Z,91.35
2019-03-12T00:42:21.328Z,91.65
2019-03-12T00:48:25.878Z,91.39
2019-03-12T00:54:30.442Z,91.89
2019-03-12T01:00:35.077Z,92.15
2019-03-12T01:06:39.805Z,92.77
2019-03-12T01:12:44.911Z,92.69
2019-03-12T01:18:50.293Z,92.67
2019-03-12T01:24:55.083Z,89.72
2019-03-12T01:30:59.860Z,89.46
2019-03-12T01:37:04.596Z,89.46
2019-03-12T01:43:09.258Z,90.69
2019-03-12T01:49:14.306Z,90.42
2019-03-12T01:55:19.887Z,90.26
2019-03-12T02:01:24.723Z,90.48
2019-03-12T02:07:29.319Z,90.94
2019-03-12T02:13:33.997Z,88.32
2019-03-12T02:19:38.559Z,88.52
2019-03-12T02:25:45.145Z,88.30
2019-03-12T02:31:50.072Z,88.69
2019-03-12T02:37:54.641Z,88.63
2019-03-12T02:43:59.194Z,88.54
2019-03-12T02:50:04.885Z,87.91
2019-03-12T02:56:09.594Z,88.60
2019-03-12T03:02:14.808Z,89.03
2019-03-12T03:08:21.616Z,88.59
2019-03-12T03:14:37.310Z,88.72
2019-03-12T03:20:42.217Z,88.97
2019-03-12T03:26:48.106Z,87.91
2019-03-12T03:32:53.014Z,88.94
2019-03-12T03:38:58.097Z,89.41
2019-03-12T03:45:02.797Z,89.25
2019-03-12T03:51:07.434Z,89.07
2019-03-12T03:57:12.010Z,87.85
2019-03-12T04:03:17.881Z,87.42
2019-03-12T04:09:22.826Z,87.53
2019-03-12T04:15:27.393Z,88.89
2019-03-12T04:21:32.267Z,89.23
2019-03-12T04:27:37.162Z,89.21
2019-03-12T04:34:04.744Z,89.90
2019-03-12T04:40:12.527Z,90.78
2019-03-12T04:46:18.240Z,90.72
2019-03-12T04:52:23.092Z,90.87
2019-03-12T04:58:27.841Z,90.10
2019-03-12T05:04:32.554Z,89.68
2019-03-12T05:10:37.520Z,89.67
2019-03-12T05:16:42.081Z,89.52
2019-03-12T05:22:47.672Z,90.28
2019-03-12T05:28:52.384Z,90.30
2019-03-12T05:34:57.065Z,90.07
2019-03-12T05:41:01.758Z,89.96
2019-03-12T05:47:08.192Z,90.51
2019-03-12T05:53:15.850Z,90.89
2019-03-12T05:59:22.060Z,90.77
2019-03-12T06:05:26.869Z,90.75
2019-03-12T06:11:31.601Z,91.17
2019-03-12T06:17:36.691Z,90.97
2019-03-12T06:23:41.315Z,90.42
2019-03-12T06:29:46.262Z,90.33
2019-03-12T06:36:09.014Z,90.54
2019-03-12T06:42:21.093Z,89.25
2019-03-12T06:48:36.302Z,88.95
2019-03-12T06:54:43.462Z,87.80
2019-03-12T07:00:56.146Z,86.25
2019-03-12T07:07:18.449Z,83.43
2019-03-12T07:13:24.912Z,82.21
2019-03-12T07:19:47.239Z,81.40
2019-03-12T07:26:11.700Z,80.11
2019-03-12T07:32:19.328Z,79.69
2019-03-12T07:38:35.723Z,78.02
2019-03-12T07:44:42.076Z,76.43
2019-03-12T07:50:48.924Z,75.73
2019-03-12T07:56:55.121Z,76.90
2019-03-12T08:03:01.471Z,76.42
2019-03-12T08:09:09.599Z,72.45
2019-03-12T08:15:32.488Z,68.98
2019-03-12T08:21:41.617Z,67.52
2019-03-12T08:27:50.525Z,59.97
2019-03-12T08:33:59.911Z,63.27
2019-03-12T08:40:18.047Z,63.32
2019-03-12T08:46:23.183Z,61.45
2019-03-12T08:52:33.611Z,61.31
2019-03-12T08:58:56.297Z,64.49
2019-03-12T09:05:18.677Z,65.07
2019-03-12T09:11:28.161Z,63.61
2019-03-12T09:17:38.646Z,58.63
2019-03-12T09:23:46.077Z,54.17
2019-03-12T09:29:54.126Z,51.55
2019-03-12T09:36:16.795Z,47.13
2019-03-12T09:42:39.155Z,44.09
2019-03-12T09:48:48.267Z,43.90
2019-03-12T09:55:11.332Z,47.31
2019-03-12T10:01:34.218Z,48.19
2019-03-12T10:07:44.033Z,53.25
2019-03-12T10:13:57.663Z,53.67
2019-03-12T10:20:19.748Z,53.50
2019-03-12T10:26:32.002Z,53.36
2019-03-12T10:32:38.262Z,54.72
2019-03-12T10:39:45.415Z,57.19
2019-03-12T10:45:51.958Z,55.84
2019-03-12T10:51:56.704Z,55.95
2019-03-12T10:58:01.323Z,57.28
2019-03-12T11:04:06.329Z,57.90
2019-03-12T11:10:16.868Z,55.53
2019-03-12T11:16:21.614Z,55.40
2019-03-12T11:22:26.385Z,53.45
2019-03-12T11:28:31.161Z,49.08
2019-03-12T11:34:38.367Z,47.38
2019-03-12T11:40:42.392Z,49.09
2019-03-12T11:46:47.828Z,49.41
2019-03-12T11:52:57.073Z,50.93
2019-03-12T11:58:59.122Z,51.93
2019-03-12T12:05:04.161Z,52.86
2019-03-12T12:11:08.868Z,52.07
2019-03-12T12:17:13.871Z,53.25
2019-03-12T12:23:19.356Z,53.20
2019-03-12T12:29:24.066Z,53.07
2019-03-12T12:35:28.696Z,53.77
2019-03-12T12:41:33.502Z,51.90
2019-03-12T12:47:38.378Z,51.61
2019-03-12T12:53:43.277Z,50.53
2019-03-12T12:59:48.347Z,49.53
2019-03-12T13:05:55.543Z,51.47
2019-03-12T13:11:59.588Z,50.43
2019-03-12T13:18:04.289Z,51.67
2019-03-12T13:24:08.978Z,52.89
2019-03-12T13:30:20.135Z,51.01
2019-03-12T13:36:24.903Z,51.92
2019-03-12T13:42:29.562Z,50.50
2019-03-12T13:48:34.125Z,49.97
2019-03-12T13:54:39.267Z,50.70
2019-03-12T14:00:44.450Z,49.40
2019-03-12T14:06:49.811Z,49.45
2019-03-12T14:12:55.996Z,49.31
2019-03-12T14:19:00.697Z,49.06
2019-03-12T14:25:08.122Z,48.43
2019-03-12T14:31:13.295Z,51.37
2019-03-12T14:37:18.433Z,50.43
2019-03-12T14:43:23.351Z,51.42
2019-03-12T14:49:28.401Z,51.07
2019-03-12T14:55:34.218Z,49.95
2019-03-12T15:01:39.056Z,50.55
2019-03-12T15:07:43.985Z,51.10
2019-03-12T15:13:49.500Z,51.33
2019-03-12T15:19:54.396Z,51.28
2019-03-12T15:25:59.272Z,51.92
2019-03-12T15:32:04.758Z,51.67
2019-03-12T15:38:09.700Z,50.78
2019-03-12T15:44:19.020Z,51.46
2019-03-12T15:50:22.582Z,52.12
2019-03-12T15:56:28.051Z,50.96
2019-03-12T16:02:32.693Z,49.39
2019-03-12T16:08:37.465Z,44.83
2019-03-12T16:14:42.217Z,45.35
2019-03-12T16:20:48.291Z,45.70
2019-03-12T16:26:53.051Z,47.56
2019-03-12T16:32:58.113Z,47.52
2019-03-12T16:39:04.719Z,49.00
2019-03-12T16:45:20.715Z,48.16
2019-03-12T16:51:25.714Z,48.10
2019-03-12T16:57:30.574Z,49.45
2019-03-12T17:03:35.424Z,49.61
2019-03-12T17:09:40.300Z,51.14
2019-03-12T17:15:46.513Z,52.95
2019-03-12T17:21:51.410Z,52.01
2019-03-12T17:27:56.204Z,51.12
2019-03-12T17:34:00.940Z,51.51
2019-03-12T17:40:14.013Z,51.42
2019-03-12T17:46:18.896Z,51.46
2019-03-12T17:52:23.957Z,53.80
2019-03-12T17:58:28.648Z,56.35
2019-03-12T18:04:33.556Z,53.66
2019-03-12T18:10:38.354Z,53.41
2019-03-12T18:16:44.208Z,53.71
2019-03-12T18:22:48.871Z,54.18
2019-03-12T18:28:53.710Z,53.34
2019-03-12T18:34:58.434Z,52.77
2019-03-12T18:41:03.012Z,53.32
2019-03-12T18:47:07.888Z,52.83
2019-03-12T18:53:13.011Z,52.46
2019-03-12T18:59:18.237Z,51.35
2019-03-12T19:05:22.966Z,50.10
2019-03-12T19:11:28.023Z,50.04
2019-03-12T19:17:32.835Z,49.68
2019-03-12T19:23:37.713Z,50.07
2019-03-12T19:29:42.438Z,49.28
2019-03-12T19:35:48.272Z,47.88
2019-03-12T19:41:53.005Z,47.48
2019-03-12T19:47:57.762Z,47.67
2019-03-12T19:54:02.546Z,46.21
2019-03-12T20:00:12.229Z,45.87
2019-03-12T20:06:17.303Z,44.48
2019-03-12T20:12:49.464Z,44.87
2019-03-12T20:19:27.459Z,43.83
2019-03-12T20:26:12.430Z,44.06
2019-03-12T20:32:44.453Z,43.21
2019-03-12T20:39:16.291Z,42.44
2019-03-12T20:46:14.224Z,42.57
2019-03-12T20:53:17.224Z,42.90
2019-03-12T20:59:59.627Z,41.80
2019-03-12T21:06:41.996Z,41.98
2019-03-12T21:13:23.075Z,40.61
2019-03-12T21:19:40.983Z,41.29
2019-03-12T21:26:06.508Z,40.69
2019-03-12T21:32:13.163Z,39.67
2019-03-12T21:38:18.846Z,39.61
2019-03-12T21:44:23.603Z,39.75
2019-03-12T21:50:28.437Z,39.77
2019-03-12T21:56:33.011Z,40.34
2019-03-12T22:02:38.039Z,39.98
2019-03-12T22:08:42.881Z,40.73
2019-03-12T22:14:47.716Z,41.44
2019-03-12T22:20:52.487Z,42.05
2019-03-12T22:26:57.081Z,43.26
2019-03-12T22:33:01.879Z,41.25
2019-03-12T22:39:07.185Z,42.03
2019-03-12T22:45:12.770Z,42.93
2019-03-12T22:51:17.974Z,44.60
2019-03-12T22:57:22.813Z,44.38
2019-03-12T23:03:27.493Z,45.82
2019-03-12T23:09:32.203Z,46.23
2019-03-12T23:15:36.956Z,46.94
2019-03-12T23:21:41.599Z,47.42
2019-03-12T23:27:46.785Z,48.77
2019-03-12T23:33:52.104Z,49.40
2019-03-12T23:39:56.825Z,50.59
2019-03-12T23:46:01.921Z,49.84
2019-03-12T23:52:07.010Z,48.90
2019-03-12T23:58:11.713Z,49.06
